x

Orange Beach - 44 Nm Se Of Mobile, Al (42012) Wave Buoy

2:50am - Sun 20th Aug 2017 All times are CDT. -5 hours from GMT.

  • Sig Wave height 0.7ft
  • Average Period 3s
  • Wind
    9mph, 11mph gusts
  • Sea Temp 88°f
  • Air Temp 83°f
  • Sea Pressure 1014.9mb
  • Orange Beach - 44 Nm Se Of Mobile, Al
  • Orange Beach - 44 Nm Se Of Mobile, Al

More Historic Weather Station data

Upgrade to MSW Pro to gain access to the past 30 days of data for over 8000 Wavebouys and Weather Stations around the globe.

Join

Comparision Forecast

View Surf forecast
   
Sun 08/20 2:50am 0.7ft  -  3s 9 11 mph 1014.9mb 88f 83f
1:50am 0.7ft  -  3s 7 7 mph 1015mb 87f 83f
Sat 08/19 11:50pm 0.7ft  -  4s 9 13 mph 1015.1mb 87f 83f
10:50pm 0.7ft  -  4s 9 11 mph 1015.2mb 88f 85f
9:50pm 0.7ft  -  3s 7 7 mph 1014.9mb 88f 85f
8:50pm 1ft 4s 3s 7 9 mph 1014.6mb 88f 85f
7:50pm 0.7ft  -  3s 9 11 mph 1014.2mb 88f 86f
6:50pm 0.7ft  -  4s 4 7 mph 1013.4mb 89f 85f
5:50pm 0.7ft  -  3s 9 9 mph 1014.3mb 89f 86f
4:50pm 0.7ft  -  4s 9 11 mph 1014mb 89f 87f
3:50pm 0.7ft  -  4s 7 9 mph 1014mb 89f 87f
2:50pm 0.7ft  -  4s 7 9 mph 1014.4mb 89f 86f
1:50pm 0.7ft  -  4s 4 4 mph 1015mb 89f 85f
12:50pm 0.7ft  -  4s 2 2 mph 1015.4mb 88f 84f
11:50am 0.7ft  -  3s 7 9 mph 1015.6mb 88f 83f
10:50am 0.7ft  -  3s 4 4 mph 1016.3mb 87f 82f
9:50am 0.7ft  -  3s 7 7 mph 1016.3mb 86f 82f
8:50am  -   -   -  9 11 mph 1015.9mb 86f 82f
7:50am 0.7ft  -  3s 9 11 mph 1015.5mb 86f 83f
6:50am 0.7ft  -  3s 9 9 mph 1014.8mb 86f 82f
5:50am 0.7ft  -  3s 9 11 mph 1014.7mb 86f 82f
4:50am 0.7ft  -  3s 16 18 mph 1014.3mb 86f 84f
3:50am 0.7ft  -  3s 7 9 mph 1014.4mb 86f 84f
2:50am 0.7ft  -  3s 7 9 mph 1014.4mb 86f 84f
1:50am 0.7ft  -  4s 4 7 mph 1014.9mb 86f 84f
12:50am 0.7ft  -  4s 9 9 mph 1015.3mb 86f 84f
Fri 08/18 11:50pm 0.7ft  -  4s 9 11 mph 1015.2mb 87f 85f
10:50pm 0.7ft  -  3s 9 9 mph 1015mb 87f 86f
9:50pm 1ft 3s 3s 9 11 mph 1015mb 87f 84f
8:50pm 1.3ft 3s 3s 4 7 mph 1015.1mb 87f 83f
7:50pm 1.6ft 3s 3s 9 13 mph 1015.1mb 87f 80f
6:50pm 1ft 3s 3s 11 13 mph 1015.6mb 87f 86f
5:50pm 1ft 3s 3s 4 7 mph 1015mb 87f 85f
4:50pm 1ft 3s 3s 16 20 mph 1015.1mb 88f 84f
3:50pm 1ft 4s 3s 11 13 mph 1014.8mb 88f 86f
2:50pm 1ft 4s 3s 13 13 mph 1015.2mb 87f 86f
1:50pm 1ft 4s 3s 9 11 mph 1016mb 87f 86f
12:50pm 1ft 4s 3s 9 11 mph 1016.6mb 87f 85f
11:50am 1.3ft 4s 3s 11 11 mph 1016.7mb 87f 84f
10:50am 1.3ft 4s 3s 9 11 mph 1016.7mb 86f 84f
9:50am 1.6ft 4s 3s 13 16 mph 1016.8mb 86f 84f
8:50am 1.6ft 4s 3s 16 18 mph 1016.5mb 86f 84f
7:50am 1.6ft 4s 3s 16 18 mph 1016.5mb 86f 85f
6:50am 1.6ft 3s 3s 16 18 mph 1016.1mb 86f 85f
5:50am 2ft 3s 3s 16 18 mph 1015.8mb 86f 85f
4:50am 2ft 3s 3s 18 20 mph 1015.4mb 86f 85f
3:50am 2ft 3s 3s 16 18 mph 1015.4mb 86f 86f
2:50am 1.3ft 3s 3s 16 18 mph 1015.8mb 86f 86f
1:50am 1ft 3s 3s 16 16 mph 1016.1mb 86f 86f
12:50am 1ft 6s 3s 13 16 mph 1016.5mb 86f 86f
Thu 08/17 11:50pm 1ft 2s 3s 11 13 mph 1017mb 86f 86f
10:50pm 1ft 3s 3s 11 11 mph 1016.9mb 87f 86f
9:50pm 1ft 6s 3s 9 11 mph 1016.6mb 87f 86f
8:50pm 1ft 3s 3s 9 11 mph 1016.6mb 87f 86f
7:50pm 1ft 4s 3s 11 13 mph 1016.5mb 87f 86f
6:50pm 1ft 5s 3s 11 11 mph 1016.2mb 88f 87f
5:50pm 1ft 4s 4s 11 13 mph 1016mb 88f 87f
4:50pm 1ft 5s 4s 11 13 mph 1016.3mb 89f 87f
3:50pm 1ft 5s 4s 9 11 mph 1017mb 89f 86f
2:50pm 1ft 5s 4s 7 9 mph 1017.4mb 91f 86f
1:50pm 1ft 5s 4s 4 7 mph 1018.3mb 90f 85f
12:50pm 1ft 3s 4s 4 7 mph 1018.9mb 90f 85f
11:50am 1ft 5s 4s 2 4 mph 1019.3mb 88f 85f
10:50am 1ft 5s 3s 4 4 mph 1019.4mb 87f 84f
9:50am 1ft 5s 4s 4 7 mph 1019.3mb 87f 84f
8:50am 1ft 6s 3s 9 9 mph 1018.9mb 87f 85f
7:50am 1ft 5s 3s 9 11 mph 1018.6mb 87f 85f
6:50am 1ft 6s 4s 11 13 mph 1018.2mb 86f 85f
5:50am  -   -   -  11 11 mph 1017.7mb 87f 85f
4:50am 1ft 6s 4s 9 11 mph 1017.3mb 86f 85f
3:50am 1ft 5s 4s 9 11 mph 1017mb 86f 85f
2:50am 1ft 5s 4s 9 11 mph 1016.8mb 86f 85f
1:50am 1ft 5s 4s 9 9 mph 1016.7mb 87f 85f
12:50am 1ft 5s 4s 7 9 mph 1017.1mb 87f 85f
Wed 08/16 11:50pm 1ft 5s 4s 4 7 mph 1017.8mb 87f 85f
10:50pm 1ft 5s 4s 4 7 mph 1018.1mb 87f 86f
9:50pm 1ft 5s 4s 4 7 mph 1018.4mb 87f 86f
8:50pm 1ft 5s 4s 4 7 mph 1018.3mb 87f 86f
7:50pm 1.3ft 5s 4s 9 11 mph 1017.7mb 88f 86f
6:50pm 1.3ft 4s 4s 9 9 mph 1017mb 89f 86f
5:50pm 1.3ft 5s 4s 9 13 mph 1016.7mb 89f 86f
4:50pm 1.3ft 5s 4s 7 11 mph 1016.8mb 90f 86f
3:50pm 1.3ft 5s 4s 9 11 mph 1016.7mb 90f 86f
2:50pm 1.3ft 5s 4s 7 9 mph 1017.2mb 89f 86f
1:50pm 1ft 5s 4s 4 7 mph 1017.9mb 89f 85f
12:50pm 1.3ft 5s 4s 4 4 mph 1018.1mb 89f 85f
11:50am 1.3ft 4s 4s 2 4 mph 1018.7mb 88f 85f
10:50am 1.3ft 4s 3s 4 7 mph 1019mb 87f 85f
9:50am 1.3ft 4s 3s 7 7 mph 1018.8mb 86f 84f
8:50am 1.3ft 3s 3s 4 7 mph 1018.4mb 86f 85f